Time;durP1;ratioP1;P1;durP2;ratioP2;P2;SDS_P1;SDS_P2;PMS_P1;PMS_P2;Temp;Humidity;BMP_temperature;BMP_pressure;BME280_temperature;BME280_humidity;BME280_pressure;Samples;Min_cycle;Max_cycle;Signal;HPM_P1;HPM_P2
2022/03/09 00:01:36;;;;;;;5.37;2.67;;;-3.00;99.90;;;;;;4940208;28;20414;-90
2022/03/09 00:04:04;;;;;;;5.97;2.90;;;-3.10;99.90;;;;;;4918471;29;20825;-89
2022/03/09 00:06:32;;;;;;;5.50;3.22;;;-3.10;99.90;;;;;;4942059;28;20399;-90
2022/03/09 00:09:00;;;;;;;7.25;3.10;;;-3.00;99.90;;;;;;4956456;28;20482;-89
2022/03/09 00:11:27;;;;;;;7.00;3.08;;;-3.10;99.90;;;;;;4948389;28;20836;-91
2022/03/09 00:13:55;;;;;;;7.22;3.05;;;-3.10;99.90;;;;;;4932754;29;20971;-90
2022/03/09 00:16:27;;;;;;;8.57;3.28;;;-3.10;99.90;;;;;;4939095;28;20412;-89
2022/03/09 00:18:54;;;;;;;7.45;3.47;;;-3.20;99.90;;;;;;4946405;29;20442;-88
2022/03/09 00:21:22;;;;;;;6.87;3.43;;;-3.20;99.90;;;;;;4933722;29;20414;-90
2022/03/09 00:23:50;;;;;;;7.30;3.30;;;-3.30;99.90;;;;;;4917801;29;20502;-88
2022/03/09 00:26:17;;;;;;;6.60;3.20;;;-3.20;99.90;;;;;;4933679;29;20900;-88
2022/03/09 00:28:46;;;;;;;7.75;3.78;;;-3.20;99.90;;;;;;4917920;29;20410;-90
2022/03/09 00:31:13;;;;;;;6.97;3.00;;;-3.20;99.90;;;;;;4933717;29;20857;-89
2022/03/09 00:33:42;;;;;;;5.90;3.20;;;-3.30;99.90;;;;;;4917936;29;20493;-90
2022/03/09 00:36:10;;;;;;;7.95;3.55;;;-3.30;99.90;;;;;;4933816;29;20927;-90
2022/03/09 00:38:38;;;;;;;6.57;3.42;;;-3.30;99.90;;;;;;4933517;29;20469;-88
2022/03/09 00:41:06;;;;;;;7.63;3.53;;;-3.30;99.90;;;;;;4933453;29;20417;-89
2022/03/09 00:43:33;;;;;;;8.07;3.35;;;-3.30;99.90;;;;;;4933605;29;20469;-90
2022/03/09 00:46:01;;;;;;;8.48;3.90;;;-3.30;99.90;;;;;;4933369;29;20438;-89
2022/03/09 00:48:29;;;;;;;7.15;3.38;;;-3.40;99.90;;;;;;4960310;28;20414;-89
2022/03/09 00:50:57;;;;;;;6.93;3.80;;;-3.40;99.90;;;;;;4971643;28;20415;-90
2022/03/09 00:53:24;;;;;;;7.38;3.47;;;-3.40;99.90;;;;;;4973312;28;20418;-89
2022/03/09 00:55:52;;;;;;;8.15;3.80;;;-3.30;99.90;;;;;;4958999;28;20422;-89
2022/03/09 00:58:20;;;;;;;8.70;4.35;;;-3.60;99.90;;;;;;4975284;28;20410;-89
2022/03/09 01:00:48;;;;;;;9.13;4.60;;;-3.50;99.90;;;;;;4959385;28;20410;-90
2022/03/09 01:03:16;;;;;;;9.00;4.50;;;-3.40;99.90;;;;;;4974940;28;20419;-90
2022/03/09 01:05:44;;;;;;;7.97;4.20;;;-3.40;99.90;;;;;;4959202;28;20901;-89
2022/03/09 01:08:12;;;;;;;9.80;4.60;;;-3.40;99.90;;;;;;4959336;28;20469;-89
2022/03/09 01:10:41;;;;;;;9.18;4.55;;;-3.40;99.90;;;;;;4959103;28;20582;-89
2022/03/09 01:13:09;;;;;;;9.30;4.17;;;-3.40;99.90;;;;;;4959134;28;20406;-90
2022/03/09 01:15:37;;;;;;;9.57;4.53;;;-3.30;99.90;;;;;;4974888;28;20414;-90
2022/03/09 01:18:04;;;;;;;9.40;4.75;;;-3.30;99.90;;;;;;4959250;28;20425;-90
2022/03/09 01:20:32;;;;;;;11.10;4.63;;;-3.30;99.90;;;;;;4958834;28;20427;-88
2022/03/09 01:23:00;;;;;;;9.23;4.55;;;-3.30;99.90;;;;;;4958798;28;20406;-89
2022/03/09 01:25:27;;;;;;;9.97;5.07;;;-3.30;99.90;;;;;;4957475;28;20410;-90
2022/03/09 01:27:55;;;;;;;8.98;4.85;;;-3.30;99.90;;;;;;4955550;28;20411;-90
2022/03/09 01:30:22;;;;;;;8.32;4.70;;;-3.30;99.90;;;;;;4939287;29;20407;-89
2022/03/09 01:32:51;;;;;;;11.90;5.70;;;-3.40;99.90;;;;;;4923769;29;20774;-90
2022/03/09 01:35:19;;;;;;;11.80;5.07;;;-3.30;99.90;;;;;;4955531;29;20448;-89
2022/03/09 01:37:50;;;;;;;10.07;5.03;;;-3.30;99.90;;;;;;4940146;29;20891;-89
2022/03/09 01:40:18;;;;;;;8.95;5.18;;;-3.30;99.90;;;;;;4924030;29;20415;-88
2022/03/09 01:42:46;;;;;;;12.05;5.25;;;-3.30;99.90;;;;;;4955309;29;20416;-89
2022/03/09 01:45:14;;;;;;;12.95;5.20;;;-3.30;99.90;;;;;;4955417;29;20419;-90
2022/03/09 01:47:42;;;;;;;10.63;5.27;;;-3.40;99.90;;;;;;4939209;29;20408;-90
2022/03/09 01:50:10;;;;;;;11.13;5.75;;;-3.40;99.90;;;;;;4939158;29;20918;-89
2022/03/09 01:52:41;;;;;;;13.02;5.75;;;-3.40;99.90;;;;;;4938926;28;20439;-90
2022/03/09 01:55:17;;;;;;;10.07;5.33;;;-3.30;99.90;;;;;;4939139;29;20419;-89
2022/03/09 01:57:45;;;;;;;11.55;5.80;;;-3.30;99.90;;;;;;4951883;29;20904;-90
2022/03/09 02:00:13;;;;;;;10.68;5.57;;;-3.30;99.90;;;;;;4920604;29;20421;-90
2022/03/09 02:02:41;;;;;;;13.27;5.53;;;-3.30;99.90;;;;;;4936530;29;20408;-89
2022/03/09 02:05:09;;;;;;;11.05;5.70;;;-3.30;99.90;;;;;;4954581;28;20449;-89
2022/03/09 02:10:25;;;;;;;9.52;5.25;;;-3.30;99.90;;;;;;4958382;28;20410;-89
2022/03/09 02:12:52;;;;;;;10.93;5.43;;;-3.40;99.90;;;;;;4942559;29;20442;-89
2022/03/09 02:15:20;;;;;;;11.18;5.28;;;-3.40;99.90;;;;;;4938825;29;20906;-90
2022/03/09 02:17:47;;;;;;;10.13;5.72;;;-3.30;99.90;;;;;;4954902;29;20411;-90
2022/03/09 02:20:16;;;;;;;10.57;5.32;;;-3.30;99.90;;;;;;4938818;29;20409;-88
2022/03/09 02:22:44;;;;;;;8.90;4.72;;;-3.30;99.90;;;;;;4954801;28;20442;-90
2022/03/09 02:25:16;;;;;;;10.10;5.10;;;-3.40;99.90;;;;;;4939138;29;20408;-90
2022/03/09 02:27:45;;;;;;;9.82;4.97;;;-3.40;99.90;;;;;;4938689;29;20413;-89
2022/03/09 02:30:18;;;;;;;10.52;5.40;;;-3.40;99.90;;;;;;4938804;29;20413;-91
2022/03/09 02:32:48;;;;;;;9.70;4.82;;;-3.40;99.90;;;;;;4954451;29;20408;-90
2022/03/09 02:35:18;;;;;;;9.23;5.10;;;-3.40;99.90;;;;;;4938745;29;20412;-89
2022/03/09 02:37:46;;;;;;;8.55;4.78;;;-3.40;99.90;;;;;;4938480;29;20409;-88
2022/03/09 02:40:16;;;;;;;9.05;4.65;;;-3.40;99.90;;;;;;4938562;29;20416;-89
2022/03/09 02:42:43;;;;;;;8.10;4.93;;;-3.40;99.90;;;;;;4938824;29;20815;-89
2022/03/09 02:45:11;;;;;;;10.23;5.25;;;-3.30;99.90;;;;;;4938724;28;20878;-90
2022/03/09 02:47:43;;;;;;;11.32;5.18;;;-3.40;99.90;;;;;;4938548;29;20408;-90
2022/03/09 02:50:13;;;;;;;9.65;4.93;;;-3.40;99.90;;;;;;4938525;29;20419;-89
2022/03/09 02:52:42;;;;;;;10.02;4.93;;;-3.40;99.90;;;;;;4938348;29;20404;-90
2022/03/09 02:55:11;;;;;;;10.18;5.35;;;-3.30;99.90;;;;;;4934912;29;20445;-90
2022/03/09 02:57:39;;;;;;;10.65;5.30;;;-3.50;99.90;;;;;;4934954;29;20911;-89
2022/03/09 03:00:08;;;;;;;10.30;5.18;;;-3.40;99.90;;;;;;4935096;29;20481;-91
2022/03/09 03:02:37;;;;;;;10.85;5.10;;;-3.40;99.90;;;;;;4950818;29;20923;-88
2022/03/09 03:05:06;;;;;;;11.30;5.30;;;-3.40;99.90;;;;;;4934714;29;20900;-89
2022/03/09 03:07:34;;;;;;;10.45;5.25;;;-3.50;99.90;;;;;;4934857;29;20414;-89
2022/03/09 03:10:03;;;;;;;11.05;5.40;;;-3.50;99.90;;;;;;4934801;29;20417;-90
2022/03/09 03:12:31;;;;;;;10.90;5.03;;;-3.40;99.90;;;;;;4934619;29;20414;-89
2022/03/09 03:14:59;;;;;;;9.75;5.00;;;-3.40;99.90;;;;;;4934760;29;20417;-89
2022/03/09 03:17:27;;;;;;;11.23;5.50;;;-3.60;99.90;;;;;;4934292;29;20422;-90
2022/03/09 03:19:54;;;;;;;10.07;5.13;;;-3.50;99.90;;;;;;4934411;29;20422;-89
2022/03/09 03:22:22;;;;;;;10.07;4.90;;;-3.50;99.90;;;;;;4934511;29;20508;-89
2022/03/09 03:24:49;;;;;;;10.13;5.22;;;-3.50;99.90;;;;;;4950176;29;20413;-90
2022/03/09 03:27:17;;;;;;;10.10;5.00;;;-3.60;99.90;;;;;;4918917;29;20806;-90
2022/03/09 03:29:45;;;;;;;10.57;5.47;;;-3.60;99.90;;;;;;4950335;29;20416;-90
2022/03/09 03:32:12;;;;;;;10.52;5.40;;;-3.60;99.90;;;;;;4934478;29;20405;-91
2022/03/09 03:34:40;;;;;;;10.77;5.57;;;-3.60;99.90;;;;;;4950304;29;20436;-90
2022/03/09 03:37:08;;;;;;;11.43;5.00;;;-3.60;99.90;;;;;;4950110;29;20410;-89
2022/03/09 03:39:35;;;;;;;12.50;5.88;;;-3.70;99.90;;;;;;4950010;29;20476;-89
2022/03/09 03:42:03;;;;;;;10.82;5.78;;;-3.60;99.90;;;;;;4950160;29;21003;-90
2022/03/09 03:44:31;;;;;;;10.02;5.60;;;-3.70;99.90;;;;;;4934080;29;20410;-89
2022/03/09 03:46:59;;;;;;;11.03;5.53;;;-3.70;99.90;;;;;;4950241;29;20410;-91
2022/03/09 03:49:28;;;;;;;11.07;5.57;;;-3.60;99.90;;;;;;4949669;28;20417;-89
2022/03/09 03:51:56;;;;;;;10.18;5.13;;;-3.60;99.90;;;;;;4949662;28;20437;-89
2022/03/09 03:54:23;;;;;;;11.38;5.57;;;-3.60;99.90;;;;;;4950245;29;20418;-89
2022/03/09 03:56:51;;;;;;;10.90;5.53;;;-3.50;99.90;;;;;;4965498;28;20414;-90
2022/03/09 03:59:18;;;;;;;10.90;5.03;;;-3.60;99.90;;;;;;4972487;28;20410;-89
2022/03/09 04:01:46;;;;;;;9.73;5.07;;;-3.60;99.90;;;;;;4955210;28;20410;-89
2022/03/09 04:04:14;;;;;;;12.85;5.85;;;-3.60;99.90;;;;;;4918301;29;20450;-89
2022/03/09 04:06:41;;;;;;;10.40;5.10;;;-3.60;99.90;;;;;;4918242;29;20406;-90
2022/03/09 04:09:09;;;;;;;9.18;4.90;;;-3.60;99.90;;;;;;4933925;29;20444;-90
2022/03/09 04:11:37;;;;;;;10.73;5.20;;;-3.60;99.90;;;;;;4918085;29;20831;-89
2022/03/09 04:14:04;;;;;;;11.60;5.05;;;-3.60;99.90;;;;;;4949861;29;20416;-88
2022/03/09 04:16:32;;;;;;;9.87;4.63;;;-3.70;99.90;;;;;;4918036;29;20421;-89
2022/03/09 04:19:00;;;;;;;10.18;4.60;;;-3.70;99.90;;;;;;4953667;28;20417;-89
2022/03/09 04:21:28;;;;;;;11.20;4.83;;;-3.70;99.90;;;;;;4972005;28;20406;-88
2022/03/09 04:23:55;;;;;;;11.38;5.15;;;-3.70;99.90;;;;;;4951396;29;20408;-90
2022/03/09 04:26:23;;;;;;;11.77;4.88;;;-3.70;99.90;;;;;;4952852;28;20404;-90
2022/03/09 04:28:51;;;;;;;10.60;5.28;;;-3.70;99.90;;;;;;4956812;29;20408;-89
2022/03/09 04:31:18;;;;;;;10.95;5.05;;;-3.70;99.90;;;;;;4943862;29;20428;-90
2022/03/09 04:33:46;;;;;;;12.07;5.85;;;-3.70;99.90;;;;;;4937593;29;20420;-89
2022/03/09 04:36:14;;;;;;;15.18;6.05;;;-3.70;99.90;;;;;;4948037;29;20419;-88
2022/03/09 04:38:42;;;;;;;11.77;5.55;;;-3.60;99.90;;;;;;4956693;29;20443;-88
2022/03/09 04:41:09;;;;;;;12.18;5.80;;;-3.60;99.90;;;;;;4957043;29;20412;-90
2022/03/09 04:43:38;;;;;;;10.30;5.47;;;-3.60;99.90;;;;;;4956399;29;20447;-89
2022/03/09 04:46:05;;;;;;;10.23;4.97;;;-3.70;99.90;;;;;;4956471;29;20455;-88
2022/03/09 04:48:34;;;;;;;10.65;5.25;;;-3.70;99.90;;;;;;4947178;28;20410;-88
2022/03/09 04:51:02;;;;;;;11.65;5.20;;;-3.90;99.90;;;;;;4959803;28;20417;-89
2022/03/09 04:53:30;;;;;;;9.88;4.82;;;-3.90;99.90;;;;;;4976020;28;20457;-89
2022/03/09 04:55:59;;;;;;;10.20;4.82;;;-3.90;99.90;;;;;;4956551;29;20412;-87
2022/03/09 04:58:27;;;;;;;9.60;4.60;;;-3.90;99.90;;;;;;4956324;29;20411;-89
2022/03/09 05:00:55;;;;;;;8.43;4.57;;;-3.80;99.90;;;;;;4956300;29;20916;-88
2022/03/09 05:03:23;;;;;;;8.27;4.28;;;-3.80;99.90;;;;;;4941018;29;20863;-89
2022/03/09 05:05:50;;;;;;;10.65;4.70;;;-3.70;99.90;;;;;;4908978;29;20414;-89
2022/03/09 05:08:18;;;;;;;10.38;4.65;;;-3.70;99.90;;;;;;4937818;29;20420;-88
2022/03/09 05:10:45;;;;;;;10.52;4.57;;;-3.80;99.90;;;;;;4936901;29;20885;-88
2022/03/09 05:13:14;;;;;;;8.32;3.97;;;-3.70;99.90;;;;;;4952581;29;20417;-87
2022/03/09 05:15:41;;;;;;;9.15;4.20;;;-3.70;99.90;;;;;;4952884;29;20414;-88
2022/03/09 05:18:09;;;;;;;10.15;4.80;;;-3.70;99.90;;;;;;4952709;29;20417;-89
2022/03/09 05:20:37;;;;;;;9.57;4.50;;;-3.70;99.90;;;;;;4952800;29;20417;-90
2022/03/09 05:23:05;;;;;;;8.93;4.22;;;-3.80;99.90;;;;;;4936844;29;20414;-89
2022/03/09 05:25:33;;;;;;;9.60;4.57;;;-3.90;99.90;;;;;;4952358;29;20422;-89
2022/03/09 05:28:01;;;;;;;8.68;4.45;;;-3.80;99.90;;;;;;4952608;29;20410;-88
2022/03/09 05:30:30;;;;;;;10.15;4.53;;;-3.80;99.90;;;;;;4936657;29;20413;-88
2022/03/09 05:32:58;;;;;;;7.65;4.10;;;-3.80;99.90;;;;;;4952536;29;20500;-89
2022/03/09 05:35:25;;;;;;;8.60;3.65;;;-3.80;99.90;;;;;;4928653;29;20446;-89
2022/03/09 05:37:53;;;;;;;9.37;4.10;;;-3.80;99.90;;;;;;4951747;29;20477;-88
2022/03/09 05:40:21;;;;;;;7.35;3.78;;;-3.80;99.90;;;;;;4919955;29;20422;-89
2022/03/09 05:42:48;;;;;;;8.20;3.93;;;-3.90;99.90;;;;;;4939427;29;20408;-90
2022/03/09 05:45:19;;;;;;;9.90;4.80;;;-3.90;99.90;;;;;;4955365;29;20420;-89
2022/03/09 05:47:48;;;;;;;20.45;5.43;;;-3.80;99.90;;;;;;4960683;28;20447;-87
2022/03/09 05:50:18;;;;;;;9.63;4.07;;;-3.90;99.90;;;;;;4932968;29;20451;-89
2022/03/09 05:52:45;;;;;;;9.13;3.45;;;-4.00;99.90;;;;;;4933420;29;20412;-89
2022/03/09 05:55:13;;;;;;;8.07;4.25;;;-4.10;99.90;;;;;;4938518;29;20420;-89
2022/03/09 05:57:41;;;;;;;8.10;3.70;;;-4.00;99.90;;;;;;4971492;28;20419;-89
2022/03/09 06:00:09;;;;;;;7.82;3.53;;;-3.90;99.90;;;;;;4971519;28;20416;-89
2022/03/09 06:02:41;;;;;;;10.05;4.45;;;-4.00;99.90;;;;;;4942044;29;20832;-89
2022/03/09 06:05:09;;;;;;;11.75;5.45;;;-4.10;99.90;;;;;;4959127;28;21138;-87
2022/03/09 06:07:37;;;;;;;8.50;3.78;;;-4.10;99.90;;;;;;4935745;29;20406;-88
2022/03/09 06:10:06;;;;;;;8.75;3.65;;;-4.00;99.90;;;;;;4951486;29;20465;-88
2022/03/09 06:12:33;;;;;;;7.78;3.65;;;-3.90;99.90;;;;;;4951461;29;20409;-88
2022/03/09 06:15:01;;;;;;;7.90;3.50;;;-3.90;99.90;;;;;;4951413;29;20916;-88
2022/03/09 06:17:32;;;;;;;9.93;4.22;;;-3.90;99.90;;;;;;4935640;29;20476;-86
2022/03/09 06:19:59;;;;;;;9.38;4.20;;;-3.80;99.90;;;;;;4951501;29;20477;-87
2022/03/09 06:22:27;;;;;;;8.18;3.92;;;-3.90;99.90;;;;;;4935210;29;20424;-87
2022/03/09 06:24:55;;;;;;;8.60;4.35;;;-3.80;99.90;;;;;;4951482;29;21098;-88
2022/03/09 06:27:22;;;;;;;8.15;3.53;;;-3.90;99.90;;;;;;4951347;29;20398;-89
2022/03/09 06:29:49;;;;;;;6.50;3.22;;;-4.00;99.90;;;;;;4950471;29;20410;-88
2022/03/09 06:32:17;;;;;;;7.70;3.80;;;-4.10;99.90;;;;;;4932080;29;20867;-88
2022/03/09 06:34:44;;;;;;;7.82;3.67;;;-4.20;99.90;;;;;;4917421;29;20874;-88
2022/03/09 06:37:12;;;;;;;7.22;3.78;;;-4.10;99.90;;;;;;4933125;29;20417;-87
2022/03/09 06:39:43;;;;;;;7.18;3.33;;;-4.10;99.90;;;;;;4951158;29;20409;-88
2022/03/09 06:42:10;;;;;;;6.40;3.67;;;-4.10;99.90;;;;;;4935183;29;20881;-87
2022/03/09 06:44:38;;;;;;;7.50;3.40;;;-4.20;99.90;;;;;;4935012;29;20418;-89
2022/03/09 06:47:05;;;;;;;5.60;2.78;;;-4.30;99.90;;;;;;4935161;29;20483;-89
2022/03/09 06:49:33;;;;;;;7.40;3.20;;;-4.40;99.90;;;;;;4934928;29;20445;-88
2022/03/09 06:52:01;;;;;;;6.53;2.85;;;-4.40;99.90;;;;;;4947266;29;20408;-88
2022/03/09 06:54:29;;;;;;;8.45;3.28;;;-4.40;99.90;;;;;;4902020;29;20412;-87
2022/03/09 06:56:56;;;;;;;6.33;3.37;;;-4.40;99.90;;;;;;4934961;29;20814;-87
2022/03/09 06:59:24;;;;;;;6.45;3.00;;;-4.40;99.90;;;;;;4919130;29;20410;-87
2022/03/09 07:01:51;;;;;;;8.05;3.15;;;-4.40;99.90;;;;;;4934846;29;20398;-89
2022/03/09 07:04:19;;;;;;;8.07;3.20;;;-4.40;99.90;;;;;;4934740;29;20505;-89
2022/03/09 07:06:47;;;;;;;7.13;3.20;;;-4.40;99.90;;;;;;4934684;29;20406;-89
2022/03/09 07:09:14;;;;;;;8.32;3.55;;;-4.40;99.90;;;;;;4919996;29;20613;-87
2022/03/09 07:11:42;;;;;;;7.30;3.40;;;-4.50;99.90;;;;;;4951701;29;20788;-88
2022/03/09 07:14:09;;;;;;;5.65;3.13;;;-4.50;99.90;;;;;;4943677;29;20428;-87
2022/03/09 07:16:37;;;;;;;7.45;3.28;;;-4.40;99.90;;;;;;4948948;29;20409;-88
2022/03/09 07:19:05;;;;;;;7.28;3.58;;;-4.30;99.90;;;;;;4936209;29;20453;-87
2022/03/09 07:21:32;;;;;;;5.78;3.00;;;-4.30;99.90;;;;;;4934572;29;20412;-86
2022/03/09 07:24:00;;;;;;;6.93;3.03;;;-4.30;99.90;;;;;;4918683;29;20413;-87
2022/03/09 07:26:27;;;;;;;5.90;2.83;;;-4.20;99.90;;;;;;4918707;29;20888;-86
2022/03/09 07:28:56;;;;;;;6.63;2.90;;;-4.30;99.90;;;;;;4918541;29;20469;-88
2022/03/09 07:31:24;;;;;;;6.28;3.25;;;-4.30;99.90;;;;;;4934228;29;20397;-88
2022/03/09 07:33:52;;;;;;;6.27;2.63;;;-4.20;99.90;;;;;;4935471;29;20453;-88
2022/03/09 07:36:19;;;;;;;6.00;3.05;;;-4.30;99.90;;;;;;4934754;29;20465;-89
2022/03/09 07:38:47;;;;;;;6.13;2.92;;;-4.30;99.90;;;;;;4936622;29;20423;-88
2022/03/09 07:41:35;;;;;;;4.43;2.50;;;-4.20;99.90;;;;;;4953344;29;20408;-86
2022/03/09 07:44:02;;;;;;;6.30;3.03;;;-4.20;99.90;;;;;;4953361;29;20396;-88
2022/03/09 07:46:30;;;;;;;7.00;3.00;;;-4.20;99.90;;;;;;4953232;29;20466;-86
2022/03/09 07:48:57;;;;;;;6.25;3.00;;;-4.20;99.90;;;;;;4937301;29;20404;-87
2022/03/09 07:51:25;;;;;;;5.88;2.78;;;-4.20;99.90;;;;;;4928351;29;20471;-87
2022/03/09 07:53:52;;;;;;;5.37;2.63;;;-4.30;99.90;;;;;;4938634;29;20400;-87
2022/03/09 07:56:20;;;;;;;7.03;2.70;;;-4.30;99.90;;;;;;4948309;29;20430;-87
2022/03/09 07:58:47;;;;;;;4.70;2.37;;;-4.30;99.90;;;;;;4920331;29;20411;-88
2022/03/09 08:01:15;;;;;;;5.45;2.97;;;-4.30;99.90;;;;;;4922707;29;20406;-88
2022/03/09 08:03:44;;;;;;;6.22;2.55;;;-4.20;99.90;;;;;;4949245;29;20916;-88
2022/03/09 08:06:11;;;;;;;5.68;3.08;;;-4.20;99.90;;;;;;4945912;29;20419;-87
2022/03/09 08:08:39;;;;;;;5.60;2.73;;;-4.10;99.90;;;;;;4930177;29;20883;-87
2022/03/09 08:11:07;;;;;;;4.30;2.25;;;-4.10;99.90;;;;;;4930267;29;20890;-87
2022/03/09 08:13:35;;;;;;;4.60;2.42;;;-4.10;99.90;;;;;;4930261;29;20458;-87
2022/03/09 08:16:08;;;;;;;4.43;2.20;;;-4.10;99.90;;;;;;4929979;29;20435;-88
2022/03/09 08:18:37;;;;;;;5.13;2.33;;;-4.10;99.90;;;;;;4930376;29;20403;-87
2022/03/09 08:21:05;;;;;;;5.50;2.40;;;-4.10;99.90;;;;;;4930225;29;20439;-87
2022/03/09 08:23:33;;;;;;;5.32;2.33;;;-4.10;99.90;;;;;;4914580;29;20443;-87
2022/03/09 08:26:00;;;;;;;5.03;2.70;;;-4.00;99.90;;;;;;4914774;29;20844;-88
2022/03/09 08:28:28;;;;;;;4.70;2.20;;;-4.00;99.90;;;;;;4930438;29;20427;-86
2022/03/09 08:30:57;;;;;;;4.70;2.47;;;-4.00;99.90;;;;;;4938525;29;20959;-88
2022/03/09 08:33:24;;;;;;;5.00;2.50;;;-4.10;99.90;;;;;;4933679;29;20410;-87
2022/03/09 08:35:55;;;;;;;4.13;1.92;;;-3.90;99.90;;;;;;4934630;29;20406;-88
2022/03/09 08:38:22;;;;;;;5.13;2.20;;;-4.00;99.90;;;;;;4949744;29;20406;-88
2022/03/09 08:40:50;;;;;;;4.05;1.98;;;-3.90;99.90;;;;;;4949513;29;20489;-88
2022/03/09 08:43:18;;;;;;;3.65;2.05;;;-3.90;99.90;;;;;;4933816;29;20401;-88
2022/03/09 08:45:45;;;;;;;4.93;2.30;;;-3.90;99.90;;;;;;4949303;29;20780;-88
2022/03/09 08:48:13;;;;;;;4.43;2.10;;;-3.80;99.90;;;;;;4933304;29;20390;-89
2022/03/09 08:50:40;;;;;;;4.95;1.88;;;-3.80;99.90;;;;;;4949402;29;20406;-88
2022/03/09 08:53:08;;;;;;;4.75;1.90;;;-3.80;99.90;;;;;;4933140;29;20905;-86
2022/03/09 08:55:36;;;;;;;4.20;1.83;;;-3.80;99.90;;;;;;4943548;29;20938;-88
2022/03/09 08:58:04;;;;;;;4.93;2.10;;;-3.70;99.90;;;;;;4914422;29;20415;-87
2022/03/09 09:00:32;;;;;;;3.63;1.77;;;-3.70;99.90;;;;;;4930066;29;20412;-87
2022/03/09 09:03:00;;;;;;;3.60;2.30;;;-3.70;99.90;;;;;;4914509;29;20463;-87
2022/03/09 09:05:29;;;;;;;4.15;1.67;;;-3.70;99.90;;;;;;4929921;29;20422;-87
2022/03/09 09:07:57;;;;;;;4.82;1.70;;;-3.60;99.90;;;;;;4914428;29;20895;-88
2022/03/09 09:10:36;;;;;;;4.35;2.00;;;-3.70;99.90;;;;;;4930110;29;20399;-89
2022/03/09 09:13:05;;;;;;;3.00;1.60;;;-3.70;99.90;;;;;;4930209;29;20404;-86
2022/03/09 09:15:32;;;;;;;3.50;1.60;;;-3.70;99.90;;;;;;4933041;29;20418;-87
2022/03/09 09:18:02;;;;;;;3.63;1.60;;;-3.60;99.90;;;;;;4917766;29;20462;-88
2022/03/09 09:20:50;;;;;;;3.33;1.50;;;-3.60;99.90;;;;;;4933473;29;20748;-87
2022/03/09 09:23:18;;;;;;;5.40;2.05;;;-3.50;99.90;;;;;;4918108;29;20443;-88
2022/03/09 09:25:48;;;;;;;3.42;1.67;;;-3.50;99.90;;;;;;4917866;29;20428;-86
2022/03/09 09:28:17;;;;;;;3.22;1.73;;;-3.50;99.90;;;;;;4933650;29;20412;-88
2022/03/09 09:30:46;;;;;;;3.45;1.60;;;-3.40;99.90;;;;;;4917966;29;20407;-87
2022/03/09 09:33:14;;;;;;;3.38;1.67;;;-3.40;99.90;;;;;;4917310;29;20395;-85
2022/03/09 09:35:41;;;;;;;3.05;1.70;;;-3.40;99.90;;;;;;4917864;29;20406;-88
2022/03/09 09:38:09;;;;;;;3.83;1.80;;;-3.30;99.90;;;;;;4933036;29;20431;-87
2022/03/09 09:40:43;;;;;;;3.42;1.83;;;-3.30;99.90;;;;;;4932319;29;20406;-88
2022/03/09 09:43:15;;;;;;;3.58;1.67;;;-3.20;99.90;;;;;;4927223;29;20443;-87
2022/03/09 09:45:43;;;;;;;4.15;1.70;;;-3.20;99.90;;;;;;4924764;29;20417;-87
2022/03/09 09:48:12;;;;;;;3.97;1.88;;;-3.20;99.90;;;;;;4920320;29;20398;-86
2022/03/09 09:50:41;;;;;;;4.10;1.77;;;-3.20;99.90;;;;;;4938642;29;20953;-85
2022/03/09 09:53:12;;;;;;;4.13;1.53;;;-3.10;99.90;;;;;;4932568;29;20499;-87
2022/03/09 09:55:42;;;;;;;5.65;1.80;;;-3.00;99.90;;;;;;4932335;29;20460;-85
2022/03/09 09:58:10;;;;;;;6.43;1.98;;;-2.90;99.90;;;;;;4922700;29;20402;-85
2022/03/09 10:00:38;;;;;;;4.20;1.73;;;-2.80;99.90;;;;;;4936761;29;20399;-87
2022/03/09 10:03:05;;;;;;;3.40;1.60;;;-2.80;99.90;;;;;;4951717;29;20410;-88
2022/03/09 10:05:33;;;;;;;5.80;2.22;;;-2.80;99.90;;;;;;4951611;29;20935;-87
2022/03/09 10:08:04;;;;;;;5.57;2.05;;;-2.70;99.90;;;;;;4935840;29;20403;-86
2022/03/09 10:10:33;;;;;;;5.75;2.50;;;-2.80;99.90;;;;;;4951616;29;20976;-88
2022/03/09 10:13:13;;;;;;;4.80;2.30;;;-2.80;99.90;;;;;;4935600;29;20406;-87
2022/03/09 10:15:41;;;;;;;4.70;2.08;;;-2.60;99.90;;;;;;4936726;29;20621;-88
2022/03/09 10:18:14;;;;;;;5.30;2.33;;;-2.60;99.90;;;;;;4935772;29;20453;-87
2022/03/09 10:20:42;;;;;;;3.63;1.70;;;-2.50;99.90;;;;;;4936473;29;20402;-87
2022/03/09 10:23:10;;;;;;;3.65;1.85;;;-2.50;99.90;;;;;;4950779;29;20820;-90
2022/03/09 10:25:40;;;;;;;3.60;1.70;;;-2.40;99.90;;;;;;4946820;28;20414;-89
2022/03/09 10:28:13;;;;;;;2.42;1.42;;;-2.40;99.90;;;;;;4917868;29;20403;-87
2022/03/09 10:30:42;;;;;;;3.38;1.63;;;-2.40;99.90;;;;;;4939371;28;20412;-89
2022/03/09 10:33:12;;;;;;;3.35;1.73;;;-2.40;99.90;;;;;;4949057;29;20404;-88
2022/03/09 10:35:46;;;;;;;4.20;1.63;;;-2.40;99.90;;;;;;4954597;29;20428;-89
2022/03/09 10:38:20;;;;;;;3.70;1.90;;;-2.20;99.90;;;;;;4971229;28;20420;-88
2022/03/09 10:40:51;;;;;;;4.60;1.70;;;-2.20;99.90;;;;;;4947451;29;20897;-86
2022/03/09 10:43:21;;;;;;;5.07;1.80;;;-2.20;99.90;;;;;;4930328;29;20436;-90
2022/03/09 10:46:06;;;;;;;3.08;1.80;;;-2.10;99.90;;;;;;4929916;29;20426;-87
2022/03/09 10:48:52;;;;;;;3.47;1.50;;;-1.90;99.90;;;;;;4932340;29;20399;-87
2022/03/09 10:51:29;;;;;;;4.15;1.70;;;-1.90;99.90;;;;;;4916642;29;20444;-87
2022/03/09 10:53:58;;;;;;;3.58;1.58;;;-1.90;99.90;;;;;;4931824;29;20435;-86
2022/03/09 10:56:26;;;;;;;4.40;1.60;;;-2.00;99.90;;;;;;4931843;29;20415;-87
2022/03/09 10:58:54;;;;;;;4.00;1.70;;;-1.80;99.90;;;;;;4931438;29;20410;-86
2022/03/09 11:01:23;;;;;;;3.08;1.45;;;-1.70;99.90;;;;;;4931635;29;20906;-87
2022/03/09 11:03:51;;;;;;;4.30;1.90;;;-1.60;99.90;;;;;;4917172;29;20898;-86
2022/03/09 11:06:20;;;;;;;3.28;1.90;;;-1.80;99.90;;;;;;4916719;29;20412;-86
2022/03/09 11:08:48;;;;;;;3.47;1.70;;;-1.80;99.90;;;;;;4934751;28;20426;-85
2022/03/09 11:11:19;;;;;;;5.30;1.90;;;-1.80;99.90;;;;;;4946582;28;20415;-88
2022/03/09 11:13:47;;;;;;;3.97;1.90;;;-1.80;99.90;;;;;;4946266;29;20756;-89
2022/03/09 11:16:17;;;;;;;2.97;1.70;;;-1.60;99.90;;;;;;4931501;29;20427;-89
2022/03/09 11:18:46;;;;;;;3.88;1.70;;;-1.50;99.90;;;;;;4950572;29;20398;-89
2022/03/09 11:21:17;;;;;;;3.43;1.60;;;-1.50;99.90;;;;;;4950115;29;20436;-89
2022/03/09 11:23:44;;;;;;;3.85;1.58;;;-1.40;99.90;;;;;;4945038;29;20994;-88
2022/03/09 11:26:21;;;;;;;3.47;1.42;;;-1.30;99.90;;;;;;4931269;29;20423;-89
2022/03/09 11:28:48;;;;;;;3.90;1.48;;;-1.20;99.90;;;;;;4931166;29;20889;-88
2022/03/09 11:31:20;;;;;;;3.33;1.88;;;-1.10;99.90;;;;;;4931215;29;20459;-89
2022/03/09 11:33:51;;;;;;;3.00;1.65;;;-1.20;99.90;;;;;;4931405;29;20415;-89
2022/03/09 11:36:21;;;;;;;3.97;1.60;;;-1.10;99.90;;;;;;4931079;29;20770;-87
2022/03/09 11:38:52;;;;;;;2.10;1.13;;;-1.20;99.90;;;;;;4915214;29;20527;-86
2022/03/09 11:41:28;;;;;;;3.17;1.30;;;-1.10;99.90;;;;;;4931248;29;20458;-87
2022/03/09 11:44:21;;;;;;;3.03;1.50;;;-1.00;99.90;;;;;;4930997;29;20403;-86
2022/03/09 11:47:04;;;;;;;3.42;1.40;;;-0.80;99.90;;;;;;4925035;29;20414;-86
2022/03/09 11:49:49;;;;;;;2.45;1.35;;;-0.90;99.90;;;;;;4934345;29;20453;-86
2022/03/09 11:52:19;;;;;;;3.22;1.35;;;-1.20;99.90;;;;;;4953387;29;20384;-86
2022/03/09 11:54:56;;;;;;;3.08;1.25;;;-1.00;99.90;;;;;;4955673;28;20419;-89
2022/03/09 11:57:44;;;;;;;2.65;1.30;;;-0.90;99.90;;;;;;4972502;28;20469;-88
2022/03/09 12:00:16;;;;;;;3.13;1.30;;;-0.90;99.90;;;;;;4959691;28;20427;-87
2022/03/09 12:02:51;;;;;;;3.47;1.45;;;-0.80;99.90;;;;;;4937292;29;20400;-89
2022/03/09 12:05:25;;;;;;;3.90;1.60;;;-0.80;99.90;;;;;;4937072;29;20396;-88
2022/03/09 12:07:57;;;;;;;4.15;1.38;;;-0.70;99.90;;;;;;4937475;29;20759;-89
2022/03/09 12:10:41;;;;;;;3.33;1.50;;;-0.60;99.90;;;;;;4953412;29;20394;-89
2022/03/09 12:13:15;;;;;;;2.97;1.45;;;-0.70;99.90;;;;;;4934026;29;20449;-90
2022/03/09 12:16:26;;;;;;;4.47;1.25;;;-0.60;99.90;;;;;;4934097;29;20402;-89
2022/03/09 12:18:57;;;;;;;2.97;1.50;;;-0.70;99.90;;;;;;4931973;29;20923;-87
2022/03/09 12:21:27;;;;;;;4.40;1.40;;;-0.60;99.90;;;;;;4928936;29;20467;-88
2022/03/09 12:24:04;;;;;;;3.33;1.30;;;-0.40;99.90;;;;;;4934405;29;20977;-89
2022/03/09 12:26:39;;;;;;;2.28;1.23;;;-0.30;99.90;;;;;;4918604;29;20410;-88
2022/03/09 12:29:21;;;;;;;2.30;1.10;;;-0.40;99.90;;;;;;4952536;29;20763;-88
2022/03/09 12:32:02;;;;;;;2.45;1.10;;;-0.10;99.90;;;;;;4937128;29;20495;-88
2022/03/09 12:34:32;;;;;;;2.55;1.23;;;-0.10;99.90;;;;;;4937184;29;20485;-89
2022/03/09 12:37:01;;;;;;;1.95;1.10;;;0.00;99.90;;;;;;4937012;29;20461;-88
2022/03/09 12:39:29;;;;;;;2.25;1.10;;;0.10;99.90;;;;;;4917778;29;20402;-88
2022/03/09 12:41:58;;;;;;;3.50;1.10;;;0.20;99.90;;;;;;4918014;29;20931;-90
2022/03/09 12:44:29;;;;;;;2.78;1.00;;;0.20;99.90;;;;;;4933846;29;20481;-89
2022/03/09 12:47:03;;;;;;;1.75;0.98;;;0.10;99.90;;;;;;4933511;29;20517;-89
2022/03/09 12:49:41;;;;;;;2.90;1.20;;;0.20;99.90;;;;;;4921018;29;20410;-90
2022/03/09 12:52:14;;;;;;;2.42;1.20;;;0.20;99.90;;;;;;4939317;29;20433;-90
2022/03/09 12:54:49;;;;;;;2.42;1.10;;;0.20;99.90;;;;;;4956238;29;20898;-88
2022/03/09 12:57:17;;;;;;;1.50;1.02;;;0.10;99.90;;;;;;4940548;29;20984;-90
2022/03/09 12:59:57;;;;;;;2.40;1.10;;;0.40;99.90;;;;;;4940659;29;20487;-88